Menu Close Menu
Station Historical Data
Daily Summary for July 1, 2017 Units:  English    Metric   Both
« Previous Day
Next Day »
Daily Weekly Monthly Yearly Custom
  High: Low: Average:
Temperature: 86.8 °F 70.3 °F 74.2 °F
Dew Point: 76.1 °F 68.0 °F 70.8 °F
Humidity: 95% 68% 90%
Wind Speed: 5.1mph 0.0mph 4.8mph
Wind Gust: 5.1mph - -
Wind- - SSE
Pressure: 30.14 in 30.05 in -
Precipitation: 0.01 in    
Historical Graphs
 
 
Tabular Data for July 1, 2017
Time Temperature Dew Point Pressure Wind Wind Speed Wind Gust Humidity Rainfall Rate (Hourly) solar Conditions
00:00 72.9 °F 70.8 °F 30.07 in NNW 5.1 mph   93% 0.00 in WeatherDisplay:10.37 W/m2 BKN
00:05 72.8 °F 70.7 °F 30.08 in Calm     93% 0.00 in WeatherDisplay:10.37 W/m2 BKN
00:10 72.8 °F 70.7 °F 30.08 in Calm     93% 0.00 in WeatherDisplay:10.37 W/m2 BKN
00:15 72.8 °F 70.7 °F 30.08 in NNW 5.1 mph   93% 0.00 in WeatherDisplay:10.37 W/m2 FEW
00:20 72.8 °F 70.7 °F 30.08 in NNW 5.1 mph   93% 0.00 in WeatherDisplay:10.37 W/m2 FEW
00:25 72.9 °F 70.8 °F 30.08 in NNW 5.1 mph   93% 0.00 in WeatherDisplay:10.37 W/m2 FEW
00:26 72.9 °F 70.8 °F 30.08 in NNW 5.1 mph   93% 0.00 in WeatherDisplay:10.37 W/m2 FEW
00:31 72.9 °F 70.8 °F 30.08 in NNW 5.1 mph   93% 0.00 in WeatherDisplay:10.37 W/m2 FEW
00:36 72.9 °F 70.8 °F 30.08 in NNW 5.1 mph   93% 0.00 in WeatherDisplay:10.37 W/m2 FEW
00:41 72.8 °F 70.7 °F 30.08 in NNW 5.1 mph   93% 0.00 in WeatherDisplay:10.37 W/m2 FEW
00:47 72.7 °F 70.6 °F 30.08 in NNW 5.1 mph   93% 0.00 in WeatherDisplay:10.37 W/m2 FEW
00:52 72.6 °F 70.5 °F 30.08 in NNW 5.1 mph   93% 0.00 in WeatherDisplay:10.37 W/m2 FEW
00:57 72.5 °F 70.4 °F 30.08 in NNW 5.1 mph   93% 0.00 in WeatherDisplay:10.37 W/m2 FEW
01:02 72.4 °F 70.3 °F 30.08 in NNW 5.1 mph   93% 0.00 in WeatherDisplay:10.37 W/m2 FEW
01:07 72.4 °F 70.3 °F 30.07 in NNW 5.1 mph   93% 0.00 in WeatherDisplay:10.37 W/m2 FEW
01:12 72.2 °F 70.1 °F 30.07 in NNW 5.1 mph   93% 0.00 in WeatherDisplay:10.37 W/m2 FEW
01:17 72.1 °F 70.0 °F 30.07 in NNW 5.1 mph   93% 0.00 in WeatherDisplay:10.37 W/m2 BKN
01:22 72.0 °F 69.9 °F 30.07 in NNW 5.1 mph   93% 0.00 in WeatherDisplay:10.37 W/m2 BKN
01:27 71.9 °F 69.8 °F 30.07 in NNW 5.1 mph   93% 0.00 in WeatherDisplay:10.37 W/m2 BKN
01:32 71.3 °F 69.2 °F 30.08 in NNW 5.1 mph   93% 0.00 in WeatherDisplay:10.37 W/m2 BKN
01:37 70.9 °F 69.4 °F 30.08 in NNW 5.1 mph   95% 0.00 in WeatherDisplay:10.37 W/m2 BKN
01:42 70.9 °F 69.4 °F 30.08 in NNW 5.1 mph   95% 0.00 in WeatherDisplay:10.37 W/m2 BKN
01:47 70.9 °F 69.4 °F 30.08 in North 5.1 mph   95% 0.00 in WeatherDisplay:10.37 W/m2 SCT
01:52 70.9 °F 69.4 °F 30.08 in North 5.1 mph   95% 0.00 in WeatherDisplay:10.37 W/m2 SCT
01:58 70.9 °F 69.4 °F 30.08 in North 5.1 mph   95% 0.00 in WeatherDisplay:10.37 W/m2 BKN
02:03 70.9 °F 69.4 °F 30.08 in North 5.1 mph   95% 0.00 in WeatherDisplay:10.37 W/m2 BKN
02:08 70.9 °F 69.4 °F 30.08 in North 5.1 mph   95% 0.00 in WeatherDisplay:10.37 W/m2 BKN
02:13 70.9 °F 69.4 °F 30.08 in North 5.1 mph   95% 0.00 in WeatherDisplay:10.37 W/m2 BKN
02:18 70.9 °F 69.4 °F 30.08 in North 5.1 mph   95% 0.00 in WeatherDisplay:10.37 W/m2 BKN
02:23 70.9 °F 69.4 °F 30.08 in North 5.1 mph   95% 0.00 in WeatherDisplay:10.37 W/m2 BKN
02:28 70.9 °F 69.4 °F 30.07 in North 5.1 mph   95% 0.00 in WeatherDisplay:10.37 W/m2 BKN
02:33 70.9 °F 69.4 °F 30.08 in North 5.1 mph   95% 0.00 in WeatherDisplay:10.37 W/m2 BKN
02:38 70.9 °F 69.4 °F 30.07 in North 5.1 mph   95% 0.00 in WeatherDisplay:10.37 W/m2 BKN
02:43 70.9 °F 69.4 °F 30.07 in North 5.1 mph   95% 0.00 in WeatherDisplay:10.37 W/m2 BKN
02:48 70.9 °F 69.4 °F 30.07 in North 5.1 mph   95% 0.00 in WeatherDisplay:10.37 W/m2 BKN
02:53 70.9 °F 69.4 °F 30.07 in North 5.1 mph   95% 0.00 in WeatherDisplay:10.37 W/m2 BKN
02:58 70.9 °F 69.4 °F 30.07 in North 5.1 mph   95% 0.00 in WeatherDisplay:10.37 W/m2 OVC
03:03 70.9 °F 69.4 °F 30.07 in North 5.1 mph   95% 0.00 in WeatherDisplay:10.37 W/m2 OVC
03:08 70.9 °F 69.4 °F 30.07 in North 5.1 mph   95% 0.00 in WeatherDisplay:10.37 W/m2 OVC
03:11 70.9 °F 69.4 °F 30.07 in North 5.1 mph   95% 0.00 in WeatherDisplay:10.37 W/m2 OVC
03:16 70.9 °F 69.4 °F 30.07 in North 5.1 mph   95% 0.00 in WeatherDisplay:10.37 W/m2 OVC
03:21 70.9 °F 69.4 °F 30.07 in North 5.1 mph   95% 0.00 in WeatherDisplay:10.37 W/m2 OVC
03:26 70.9 °F 69.4 °F 30.07 in North 5.1 mph   95% 0.00 in WeatherDisplay:10.37 W/m2 OVC
03:31 70.9 °F 69.4 °F 30.07 in North 5.1 mph   95% 0.00 in WeatherDisplay:10.37 W/m2 OVC
03:36 70.9 °F 69.4 °F 30.06 in North 5.1 mph   95% 0.00 in WeatherDisplay:10.37 W/m2 OVC
03:41 70.9 °F 69.4 °F 30.06 in North 5.1 mph   95% 0.00 in WeatherDisplay:10.37 W/m2 OVC
03:46 70.9 °F 69.4 °F 30.06 in North 5.1 mph   95% 0.00 in WeatherDisplay:10.37 W/m2 OVC
03:51 70.9 °F 69.4 °F 30.07 in North 5.1 mph   95% 0.00 in WeatherDisplay:10.37 W/m2 OVC
03:53 70.9 °F 69.4 °F 30.07 in North 5.1 mph   95% 0.00 in WeatherDisplay:10.37 W/m2 OVC
03:59 70.9 °F 69.4 °F 30.07 in North 5.1 mph   95% 0.00 in WeatherDisplay:10.37 W/m2 OVC
04:04 70.9 °F 69.4 °F 30.07 in North 5.1 mph   95% 0.00 in WeatherDisplay:10.37 W/m2 OVC
04:09 70.9 °F 69.4 °F 30.07 in North 5.1 mph   95% 0.00 in WeatherDisplay:10.37 W/m2 OVC
04:14 70.9 °F 69.4 °F 30.07 in North 5.1 mph   95% 0.00 in WeatherDisplay:10.37 W/m2 OVC
04:19 70.9 °F 69.4 °F 30.07 in North 5.1 mph   95% 0.00 in WeatherDisplay:10.37 W/m2 OVC
04:24 70.9 °F 69.4 °F 30.07 in North 5.1 mph   95% 0.00 in WeatherDisplay:10.37 W/m2 OVC
04:29 70.9 °F 69.4 °F 30.07 in North 5.1 mph   95% 0.00 in WeatherDisplay:10.37 W/m2 OVC
04:34 70.9 °F 69.4 °F 30.07 in North 5.1 mph   95% 0.00 in WeatherDisplay:10.37 W/m2 OVC
04:39 70.9 °F 69.4 °F 30.07 in North 5.1 mph   95% 0.00 in WeatherDisplay:10.37 W/m2 OVC
04:44 70.9 °F 69.4 °F 30.07 in North 5.1 mph   95% 0.00 in WeatherDisplay:10.37 W/m2 OVC
04:49 70.9 °F 69.4 °F 30.07 in North 5.1 mph   95% 0.00 in WeatherDisplay:10.37 W/m2 OVC
04:54 70.9 °F 69.4 °F 30.07 in North 5.1 mph   95% 0.00 in WeatherDisplay:10.37 W/m2 OVC
05:00 70.9 °F 69.4 °F 30.07 in North 5.1 mph   95% 0.00 in WeatherDisplay:10.37 W/m2 OVC
05:05 70.9 °F 69.4 °F 30.07 in Calm     95% 0.00 in WeatherDisplay:10.37 W/m2 OVC
05:10 70.9 °F 69.4 °F 30.07 in Calm     95% 0.00 in WeatherDisplay:10.37 W/m2 OVC
05:15 70.9 °F 69.4 °F 30.06 in Calm     95% 0.00 in WeatherDisplay:10.37 W/m2 OVC
05:20 70.9 °F 69.4 °F 30.06 in Calm     95% 0.00 in WeatherDisplay:10.37 W/m2 OVC
05:25 70.9 °F 69.4 °F 30.07 in Calm     95% 0.00 in WeatherDisplay:10.37 W/m2 OVC
05:30 70.9 °F 69.4 °F 30.07 in Calm     95% 0.00 in WeatherDisplay:10.37 W/m2 OVC
05:33 70.9 °F 69.4 °F 30.07 in North 5.1 mph   95% 0.00 in WeatherDisplay:10.37 W/m2 OVC
05:38 70.9 °F 69.4 °F 30.07 in North 5.1 mph   95% 0.00 in WeatherDisplay:10.37 W/m2 OVC
05:43 70.9 °F 69.4 °F 30.07 in North 5.1 mph   95% 0.00 in WeatherDisplay:10.37 W/m2 OVC
05:48 70.9 °F 69.4 °F 30.06 in North 5.1 mph   95% 0.00 in WeatherDisplay:10.37 W/m2 OVC
05:53 70.9 °F 69.4 °F 30.07 in North 5.1 mph   95% 0.00 in WeatherDisplay:10.37 W/m2 OVC
05:58 70.9 °F 69.4 °F 30.07 in North 5.1 mph   95% 0.00 in WeatherDisplay:10.37 W/m2 OVC
06:04 70.9 °F 69.4 °F 30.07 in North 5.1 mph   95% 0.00 in WeatherDisplay:10.37 W/m2 OVC
06:09 70.9 °F 69.4 °F 30.07 in North 5.1 mph   95% 0.00 in WeatherDisplay:10.37 W/m2 OVC
06:14 70.9 °F 69.4 °F 30.07 in North 5.1 mph   95% 0.00 in WeatherDisplay:10.37 W/m2 OVC
06:19 70.9 °F 69.4 °F 30.07 in North 5.1 mph   95% 0.00 in WeatherDisplay:10.37 W/m2 SCT
06:24 70.9 °F 69.4 °F 30.07 in North 5.1 mph   95% 0.00 in WeatherDisplay:10.37 W/m2 SCT
06:29 70.9 °F 69.4 °F 30.07 in North 5.1 mph   95% 0.00 in WeatherDisplay:10.37 W/m2 -RA
06:34 70.9 °F 69.4 °F 30.07 in North 5.1 mph   95% 0.00 in WeatherDisplay:10.37 W/m2 -RA
06:39 70.9 °F 69.4 °F 30.07 in North 5.1 mph   95% 0.00 in WeatherDisplay:10.37 W/m2 -RA
06:44 70.9 °F 69.4 °F 30.07 in North 5.1 mph   95% 0.00 in WeatherDisplay:10.37 W/m2 -RA
06:49 70.9 °F 69.4 °F 30.08 in North 5.1 mph   95% 0.00 in WeatherDisplay:10.37 W/m2 -DZ
06:54 70.9 °F 69.4 °F 30.08 in North 5.1 mph   95% 0.00 in WeatherDisplay:10.37 W/m2 -DZ
06:59 70.9 °F 69.4 °F 30.08 in North 5.1 mph   95% 0.00 in WeatherDisplay:10.37 W/m2 BKN
07:04 70.9 °F 69.4 °F 30.08 in North 5.1 mph   95% 0.00 in WeatherDisplay:10.37 W/m2 BKN
07:09 70.9 °F 69.4 °F 30.08 in North 5.1 mph   95% 0.00 in WeatherDisplay:10.37 W/m2 BKN
07:15 70.9 °F 69.4 °F 30.09 in North 5.1 mph   95% 0.00 in WeatherDisplay:10.37 W/m2 BKN
07:20 70.9 °F 69.4 °F 30.09 in Calm     95% 0.00 in WeatherDisplay:10.37 W/m2 OVC
07:25 70.9 °F 69.4 °F 30.09 in Calm     95% 0.00 in WeatherDisplay:10.37 W/m2 OVC
07:30 70.9 °F 69.4 °F 30.09 in Calm     95% 0.00 in WeatherDisplay:10.37 W/m2 OVC
07:35 70.9 °F 69.4 °F 30.09 in Calm     95% 0.00 in WeatherDisplay:10.37 W/m2 OVC
07:40 70.9 °F 69.4 °F 30.10 in North 5.1 mph   95% 0.00 in WeatherDisplay:10.37 W/m2 OVC
07:45 70.9 °F 69.4 °F 30.10 in Calm     95% 0.00 in WeatherDisplay:10.37 W/m2 OVC
07:50 70.9 °F 69.4 °F 30.10 in Calm     95% 0.00 in WeatherDisplay:10.37 W/m2 OVC
07:53 70.9 °F 69.4 °F 30.10 in North 5.1 mph   95% 0.00 in WeatherDisplay:10.37 W/m2 OVC
07:58 70.9 °F 69.4 °F 30.10 in North 5.1 mph   95% 0.00 in WeatherDisplay:10.37 W/m2 OVC
08:03 70.9 °F 69.4 °F 30.10 in North 5.1 mph   95% 0.00 in WeatherDisplay:10.37 W/m2 OVC
08:08 70.9 °F 69.4 °F 30.10 in North 5.1 mph   95% 0.00 in WeatherDisplay:10.37 W/m2 OVC
08:13 70.9 °F 69.4 °F 30.10 in North 5.1 mph   95% 0.00 in WeatherDisplay:10.37 W/m2 OVC
08:19 71.6 °F 69.8 °F 30.10 in WSW 5.1 mph   94% 0.00 in WeatherDisplay:10.37 W/m2 BKN
08:24 71.8 °F 70.0 °F 30.10 in WSW 5.1 mph   94% 0.00 in WeatherDisplay:10.37 W/m2 BKN
08:29 71.9 °F 69.8 °F 30.10 in WSW 5.1 mph   93% 0.00 in WeatherDisplay:10.37 W/m2 BKN
08:34 72.0 °F 69.9 °F 30.10 in West 5.1 mph   93% 0.00 in WeatherDisplay:10.37 W/m2 BKN
08:39 72.4 °F 70.3 °F 30.10 in West 5.1 mph   93% 0.00 in WeatherDisplay:10.37 W/m2 BKN
08:44 72.5 °F 70.0 °F 30.10 in West 5.1 mph 5.1 mph 92% 0.00 in WeatherDisplay:10.37 W/m2 BKN
08:49 72.7 °F 70.2 °F 30.10 in West 5.1 mph 5.1 mph 92% 0.00 in WeatherDisplay:10.37 W/m2 BKN
08:54 72.9 °F 70.1 °F 30.10 in West 5.1 mph 5.1 mph 91% 0.00 in WeatherDisplay:10.37 W/m2 BKN
08:59 73.0 °F 70.2 °F 30.11 in West 5.1 mph   91% 0.00 in WeatherDisplay:10.37 W/m2 OVC
09:04 73.1 °F 70.3 °F 30.10 in West 5.1 mph   91% 0.00 in WeatherDisplay:10.37 W/m2 OVC
09:09 73.1 °F 70.0 °F 30.10 in West 5.1 mph   90% 0.00 in WeatherDisplay:10.37 W/m2 OVC
09:14 73.3 °F 70.2 °F 30.10 in WSW 5.1 mph   90% 0.00 in WeatherDisplay:10.37 W/m2 OVC
09:19 73.4 °F 70.3 °F 30.10 in WSW 5.1 mph   90% 0.00 in WeatherDisplay:10.37 W/m2 OVC
09:25 73.5 °F 70.4 °F 30.10 in WSW 5.1 mph   90% 0.00 in WeatherDisplay:10.37 W/m2 OVC
09:30 73.6 °F 70.5 °F 30.11 in West 5.1 mph   90% 0.00 in WeatherDisplay:10.37 W/m2 OVC
09:35 73.6 °F 70.2 °F 30.11 in Calm   1.0 mph 89% 0.00 in WeatherDisplay:10.37 W/m2 OVC
09:40 73.5 °F 70.4 °F 30.11 in WNW 5.1 mph   90% 0.00 in WeatherDisplay:10.37 W/m2 OVC
09:45 73.5 °F 70.4 °F 30.11 in West 5.1 mph   90% 0.00 in WeatherDisplay:10.37 W/m2 OVC
09:50 73.5 °F 70.4 °F 30.11 in West 5.1 mph 5.1 mph 90% 0.00 in WeatherDisplay:10.37 W/m2 OVC
09:55 73.5 °F 70.4 °F 30.11 in West 5.1 mph   90% 0.01 in WeatherDisplay:10.37 W/m2 OVC
10:00 73.5 °F 70.4 °F 30.11 in West 5.1 mph   90% 0.01 in WeatherDisplay:10.37 W/m2 OVC
10:05 73.7 °F 70.6 °F 30.11 in West 5.1 mph   90% 0.01 in WeatherDisplay:10.37 W/m2 OVC
10:10 74.0 °F 70.9 °F 30.11 in West 5.1 mph   90% 0.01 in WeatherDisplay:10.37 W/m2 OVC
10:15 74.2 °F 71.1 °F 30.11 in West 5.1 mph   90% 0.01 in WeatherDisplay:10.37 W/m2 OVC
10:20 74.3 °F 70.8 °F 30.11 in West 5.1 mph   89% 0.01 in WeatherDisplay:10.37 W/m2 OVC
10:25 74.4 °F 70.9 °F 30.11 in West 5.1 mph   89% 0.01 in WeatherDisplay:10.37 W/m2 OVC
10:30 74.5 °F 71.0 °F 30.12 in West 5.1 mph   89% 0.01 in WeatherDisplay:10.37 W/m2 OVC
10:35 74.6 °F 71.1 °F 30.11 in WSW 5.1 mph   89% 0.01 in WeatherDisplay:10.37 W/m2 OVC
10:40 74.7 °F 70.9 °F 30.11 in West 5.1 mph   88% 0.01 in WeatherDisplay:10.37 W/m2 OVC
10:45 74.8 °F 71.3 °F 30.11 in West 5.1 mph 5.1 mph 89% 0.01 in WeatherDisplay:10.37 W/m2 OVC
10:50 75.1 °F 71.3 °F 30.11 in West 5.1 mph   88% 0.01 in WeatherDisplay:10.37 W/m2 OVC
10:55 75.4 °F 71.6 °F 30.11 in WNW 5.1 mph 5.1 mph 88% 0.00 in WeatherDisplay:10.37 W/m2 OVC
11:01 75.6 °F 71.5 °F 30.11 in SW 5.1 mph   87% 0.00 in WeatherDisplay:10.37 W/m2 OVC
11:06 75.7 °F 71.6 °F 30.11 in SW 5.1 mph   87% 0.00 in WeatherDisplay:10.37 W/m2 OVC
11:11 76.0 °F 71.5 °F 30.11 in SSW 5.1 mph 5.1 mph 86% 0.00 in WeatherDisplay:10.37 W/m2 OVC
11:16 76.4 °F 72.2 °F 30.11 in WNW 5.1 mph   87% 0.00 in WeatherDisplay:10.37 W/m2 OVC
11:21 76.9 °F 72.0 °F 30.11 in North 5.1 mph 5.1 mph 85% 0.00 in WeatherDisplay:10.37 W/m2 OVC
11:26 77.3 °F 72.4 °F 30.11 in NNW 5.1 mph 5.1 mph 85% 0.00 in WeatherDisplay:10.37 W/m2 OVC
11:31 77.6 °F 72.7 °F 30.11 in SW 5.1 mph 5.1 mph 85% 0.00 in WeatherDisplay:10.37 W/m2 OVC
11:36 77.9 °F 73.0 °F 30.11 in NNW 5.1 mph 5.1 mph 85% 0.00 in WeatherDisplay:10.37 W/m2 OVC
11:41 78.0 °F 72.8 °F 30.11 in SW 5.1 mph   84% 0.00 in WeatherDisplay:10.37 W/m2 OVC
11:46 78.2 °F 73.0 °F 30.11 in WNW 5.1 mph   84% 0.00 in WeatherDisplay:10.37 W/m2 OVC
11:51 78.7 °F 73.8 °F 30.11 in SSW 5.1 mph 5.1 mph 85% 0.00 in WeatherDisplay:10.37 W/m2 OVC
11:57 79.0 °F 73.0 °F 30.11 in SSW 5.1 mph 5.1 mph 82% 0.00 in WeatherDisplay:10.37 W/m2 OVC
12:02 79.2 °F 73.6 °F 30.11 in WSW 5.1 mph 5.1 mph 83% 0.00 in WeatherDisplay:10.37 W/m2 OVC
12:07 79.3 °F 73.3 °F 30.10 in SSW 5.1 mph 5.1 mph 82% 0.00 in WeatherDisplay:10.37 W/m2 OVC
12:12 79.2 °F 72.9 °F 30.10 in West 5.1 mph 5.1 mph 81% 0.00 in WeatherDisplay:10.37 W/m2 OVC
12:17 79.6 °F 74.0 °F 30.10 in WSW 5.1 mph   83% 0.00 in WeatherDisplay:10.37 W/m2 BKN
12:22 79.9 °F 73.2 °F 30.10 in SSE 5.1 mph 5.1 mph 80% 0.00 in WeatherDisplay:10.37 W/m2 BKN
12:27 80.5 °F 74.1 °F 30.10 in SSW 5.1 mph 5.1 mph 81% 0.00 in WeatherDisplay:10.37 W/m2 BKN
12:32 81.2 °F 73.7 °F 30.10 in SW 5.1 mph   78% 0.00 in WeatherDisplay:10.37 W/m2 BKN
12:37 81.4 °F 73.9 °F 30.10 in WSW 5.1 mph   78% 0.00 in WeatherDisplay:10.37 W/m2 BKN
12:42 81.5 °F 74.4 °F 30.10 in WSW 5.1 mph   79% 0.00 in WeatherDisplay:10.37 W/m2 BKN
12:47 82.0 °F 75.2 °F 30.10 in WNW 5.1 mph   80% 0.00 in WeatherDisplay:10.37 W/m2 BKN
12:48 82.0 °F 74.1 °F 30.09 in WNW 5.1 mph   77% 0.00 in WeatherDisplay:10.37 W/m2 BKN
12:53 82.1 °F 74.2 °F 30.09 in WSW 5.1 mph 5.1 mph 77% 0.00 in WeatherDisplay:10.37 W/m2 BKN
12:58 82.3 °F 74.7 °F 30.09 in SSW 5.1 mph 5.1 mph 78% 0.00 in WeatherDisplay:10.37 W/m2 BKN
13:01 82.5 °F 74.2 °F 30.09 in WNW 5.1 mph 5.1 mph 76% 0.00 in WeatherDisplay:10.37 W/m2 BKN
13:04 82.8 °F 74.8 °F 30.09 in NNW 5.1 mph   77% 0.00 in WeatherDisplay:10.37 W/m2 BKN
13:09 83.2 °F 74.4 °F 30.09 in NNW 5.1 mph 5.1 mph 75% 0.00 in WeatherDisplay:10.37 W/m2 BKN
13:14 83.3 °F 74.1 °F 30.09 in North 5.1 mph   74% 0.00 in WeatherDisplay:10.37 W/m2 BKN
13:18 83.5 °F 74.7 °F 30.09 in North 5.1 mph   75% 0.00 in WeatherDisplay:10.37 W/m2 BKN
13:23 83.7 °F 74.1 °F 30.09 in SW 5.1 mph 5.1 mph 73% 0.00 in WeatherDisplay:10.37 W/m2 BKN
13:28 83.7 °F 74.5 °F 30.09 in NNE 5.1 mph   74% 0.00 in WeatherDisplay:10.37 W/m2 BKN
13:33 83.9 °F 74.3 °F 30.09 in SSW 5.1 mph   73% 0.00 in WeatherDisplay:10.37 W/m2 BKN
13:38 84.3 °F 74.7 °F 30.09 in SSW 5.1 mph   73% 0.00 in WeatherDisplay:10.37 W/m2 BKN
13:43 84.3 °F 74.7 °F 30.09 in SSW 5.1 mph   73% 0.00 in WeatherDisplay:10.37 W/m2 BKN
13:48 84.6 °F 75.4 °F 30.09 in SSW 5.1 mph   74% 0.00 in WeatherDisplay:10.37 W/m2 BKN
13:53 85.1 °F 75.1 °F 30.09 in East 5.1 mph 5.1 mph 72% 0.00 in WeatherDisplay:10.37 W/m2 BKN
13:58 85.4 °F 74.5 °F 30.09 in ENE 5.1 mph   70% 0.00 in WeatherDisplay:10.37 W/m2 BKN
14:03 85.5 °F 75.0 °F 30.09 in SW 5.1 mph 5.1 mph 71% 0.00 in WeatherDisplay:10.37 W/m2 BKN
14:09 85.9 °F 75.4 °F 30.08 in West 5.1 mph 5.1 mph 71% 0.00 in WeatherDisplay:10.37 W/m2 BKN
14:14 86.4 °F 74.6 °F 30.08 in East 5.1 mph 5.1 mph 68% 0.00 in WeatherDisplay:10.37 W/m2 BKN
14:19 86.8 °F 75.8 °F 30.08 in North 5.1 mph   70% 0.00 in WeatherDisplay:10.37 W/m2 BKN
14:24 86.6 °F 75.2 °F 30.08 in SW 5.1 mph   69% 0.00 in WeatherDisplay:10.37 W/m2 BKN
14:29 86.1 °F 74.3 °F 30.08 in West 5.1 mph 5.1 mph 68% 0.00 in WeatherDisplay:10.37 W/m2 BKN
14:34 85.5 °F 75.4 °F 30.08 in West 5.1 mph   72% 0.00 in WeatherDisplay:10.37 W/m2 BKN
14:39 85.0 °F 75.4 °F 30.08 in SSW 5.1 mph   73% 0.00 in WeatherDisplay:10.37 W/m2 BKN
14:44 84.6 °F 74.2 °F 30.08 in West 5.1 mph 5.1 mph 71% 0.00 in WeatherDisplay:10.37 W/m2 BKN
14:49 84.4 °F 75.2 °F 30.08 in West 5.1 mph   74% 0.00 in WeatherDisplay:10.37 W/m2 BKN
14:50 84.3 °F 75.1 °F 30.08 in West 5.1 mph   74% 0.00 in WeatherDisplay:10.37 W/m2 BKN
14:55 84.0 °F 75.2 °F 30.07 in West 5.1 mph   75% 0.00 in WeatherDisplay:10.37 W/m2 BKN
15:00 83.8 °F 75.8 °F 30.07 in West 5.1 mph   77% 0.00 in WeatherDisplay:10.37 W/m2 BKN
15:06 83.3 °F 75.7 °F 30.07 in NNW 5.1 mph   78% 0.00 in WeatherDisplay:10.37 W/m2 BKN
15:11 83.0 °F 75.4 °F 30.07 in North 5.1 mph   78% 0.00 in WeatherDisplay:10.37 W/m2 BKN
15:16 83.3 °F 76.1 °F 30.06 in NNE 5.1 mph 5.1 mph 79% 0.00 in WeatherDisplay:10.37 W/m2 BKN
15:21 83.6 °F 74.4 °F 30.07 in ESE 5.1 mph   74% 0.00 in WeatherDisplay:10.37 W/m2 BKN
15:26 84.1 °F 73.7 °F 30.06 in ESE 5.1 mph 5.1 mph 71% 0.00 in WeatherDisplay:10.37 W/m2 BKN
15:31 84.1 °F 74.1 °F 30.07 in ESE 5.1 mph 5.1 mph 72% 0.00 in WeatherDisplay:10.37 W/m2 BKN
15:36 83.8 °F 74.6 °F 30.07 in South 5.1 mph   74% 0.00 in WeatherDisplay:10.37 W/m2 BKN
15:41 83.3 °F 74.9 °F 30.06 in SW 5.1 mph 5.1 mph 76% 0.00 in WeatherDisplay:10.37 W/m2 BKN
15:46 82.7 °F 75.1 °F 30.06 in SW 5.1 mph   78% 0.00 in WeatherDisplay:10.37 W/m2 -DZ
15:51 82.4 °F 74.8 °F 30.06 in SW 5.1 mph   78% 0.00 in WeatherDisplay:10.37 W/m2 -DZ
15:56 81.8 °F 75.0 °F 30.07 in SW 5.1 mph   80% 0.00 in WeatherDisplay:10.37 W/m2 -DZ
16:01 79.2 °F 70.6 °F 30.06 in NW 5.1 mph 5.1 mph 75% 0.00 in WeatherDisplay:10.37 W/m2 -DZ
16:06 76.1 °F 69.5 °F 30.06 in NW 5.1 mph   80% 0.00 in WeatherDisplay:10.37 W/m2 -DZ
16:11 74.6 °F 69.4 °F 30.06 in NW 5.1 mph   84% 0.00 in WeatherDisplay:10.37 W/m2 -DZ
16:16 73.8 °F 69.7 °F 30.06 in NNE 5.1 mph   87% 0.00 in WeatherDisplay:10.37 W/m2 SCT
16:21 74.0 °F 70.9 °F 30.05 in NNE 5.1 mph   90% 0.00 in WeatherDisplay:10.37 W/m2 SCT
16:26 74.4 °F 71.6 °F 30.06 in NNE 5.1 mph   91% 0.00 in WeatherDisplay:10.37 W/m2 SCT
16:31 74.7 °F 71.9 °F 30.06 in NNE 5.1 mph   91% 0.00 in WeatherDisplay:10.37 W/m2 SCT
16:36 74.9 °F 72.1 °F 30.05 in NNE 5.1 mph   91% 0.00 in WeatherDisplay:10.37 W/m2 SCT
16:41 74.7 °F 71.9 °F 30.05 in NNE 5.1 mph   91% 0.00 in WeatherDisplay:10.37 W/m2 SCT
16:46 74.8 °F 72.0 °F 30.05 in NNE 5.1 mph   91% 0.00 in WeatherDisplay:10.37 W/m2 OVC
16:52 75.1 °F 72.6 °F 30.06 in NNE 5.1 mph   92% 0.00 in WeatherDisplay:10.37 W/m2 OVC
16:57 75.6 °F 73.1 °F 30.05 in NNE 5.1 mph   92% 0.00 in WeatherDisplay:10.37 W/m2 OVC
17:02 76.6 °F 74.4 °F 30.05 in NNE 5.1 mph   93% 0.00 in WeatherDisplay:10.37 W/m2 OVC
17:07 77.2 °F 75.0 °F 30.05 in NNE 5.1 mph   93% 0.00 in WeatherDisplay:10.37 W/m2 OVC
17:12 77.4 °F 75.2 °F 30.06 in NNE 5.1 mph   93% 0.00 in WeatherDisplay:10.37 W/m2 OVC
17:17 77.3 °F 75.1 °F 30.06 in WNW 5.1 mph 5.1 mph 93% 0.00 in WeatherDisplay:10.37 W/m2 OVC
17:22 75.9 °F 72.8 °F 30.05 in West 5.1 mph   90% 0.00 in WeatherDisplay:10.37 W/m2 OVC
17:27 75.0 °F 71.9 °F 30.05 in NW 5.1 mph   90% 0.00 in WeatherDisplay:10.37 W/m2 BKN
17:32 74.6 °F 71.5 °F 30.05 in NW 5.1 mph   90% 0.00 in WeatherDisplay:10.37 W/m2 BKN
17:37 74.6 °F 71.8 °F 30.05 in NW 5.1 mph   91% 0.00 in WeatherDisplay:10.37 W/m2 BKN
17:42 74.5 °F 71.7 °F 30.05 in NW 5.1 mph   91% 0.00 in WeatherDisplay:10.37 W/m2 BKN
17:47 74.4 °F 71.6 °F 30.05 in NW 5.1 mph   91% 0.00 in WeatherDisplay:10.37 W/m2 BKN
17:52 74.5 °F 72.0 °F 30.05 in NW 5.1 mph   92% 0.00 in WeatherDisplay:10.37 W/m2 BKN
17:57 74.4 °F 71.9 °F 30.06 in NW 5.1 mph   92% 0.00 in WeatherDisplay:10.37 W/m2 BKN
18:03 74.0 °F 71.2 °F 30.06 in NW 5.1 mph   91% 0.00 in WeatherDisplay:10.37 W/m2 BKN
18:08 74.0 °F 71.5 °F 30.06 in NW 5.1 mph   92% 0.00 in WeatherDisplay:10.37 W/m2 BKN
18:13 73.7 °F 71.2 °F 30.06 in NW 5.1 mph   92% 0.00 in WeatherDisplay:10.37 W/m2 BKN
18:18 73.7 °F 71.2 °F 30.05 in NW 5.1 mph   92% 0.00 in WeatherDisplay:10.37 W/m2 BKN
18:23 73.5 °F 71.0 °F 30.05 in NW 5.1 mph   92% 0.00 in WeatherDisplay:10.37 W/m2 BKN
18:28 73.6 °F 71.1 °F 30.05 in NW 5.1 mph   92% 0.00 in WeatherDisplay:10.37 W/m2 BKN
18:33 73.8 °F 71.6 °F 30.07 in NNE 5.1 mph   93% 0.00 in WeatherDisplay:10.37 W/m2 BKN
18:38 74.1 °F 71.9 °F 30.09 in SSE 5.1 mph 5.1 mph 93% 0.00 in WeatherDisplay:10.37 W/m2 BKN
18:43 74.1 °F 71.9 °F 30.10 in ENE 5.1 mph 5.1 mph 93% 0.00 in WeatherDisplay:10.37 W/m2 BKN
18:45 73.5 °F 70.7 °F 30.10 in ENE 5.1 mph 5.1 mph 91% 0.00 in WeatherDisplay:10.37 W/m2 BKN
18:50 72.6 °F 68.8 °F 30.10 in West 5.1 mph 5.1 mph 88% 0.00 in WeatherDisplay:10.37 W/m2 BKN
18:56 72.1 °F 68.7 °F 30.10 in ENE 5.1 mph 5.1 mph 89% 0.00 in WeatherDisplay:10.37 W/m2 BKN
19:01 71.8 °F 68.4 °F 30.11 in ENE 5.1 mph 5.1 mph 89% 0.00 in WeatherDisplay:10.37 W/m2 BKN
19:06 71.7 °F 68.6 °F 30.10 in NNE 5.1 mph   90% 0.00 in WeatherDisplay:10.37 W/m2 BKN
19:11 71.5 °F 68.4 °F 30.10 in NNE 5.1 mph   90% 0.00 in WeatherDisplay:10.37 W/m2 BKN
19:16 71.4 °F 68.6 °F 30.10 in NNE 5.1 mph   91% 0.00 in WeatherDisplay:10.37 W/m2 -DZ
19:21 71.4 °F 68.6 °F 30.09 in NNE 5.1 mph   91% 0.00 in WeatherDisplay:10.37 W/m2 -DZ
19:26 71.5 °F 68.7 °F 30.09 in NW 5.1 mph   91% 0.00 in WeatherDisplay:10.37 W/m2 -DZ
19:31 71.4 °F 68.6 °F 30.09 in NNE 5.1 mph 5.1 mph 91% 0.00 in WeatherDisplay:10.37 W/m2 -DZ
19:36 71.2 °F 68.4 °F 30.09 in NNE 5.1 mph   91% 0.00 in WeatherDisplay:10.37 W/m2 -DZ
19:41 71.1 °F 68.3 °F 30.08 in NNW 5.1 mph   91% 0.00 in WeatherDisplay:10.37 W/m2 -DZ
19:46 71.2 °F 68.8 °F 30.08 in NNW 5.1 mph   92% 0.00 in WeatherDisplay:10.37 W/m2 BKN
19:51 71.1 °F 68.7 °F 30.09 in NNW 5.1 mph   92% 0.00 in WeatherDisplay:10.37 W/m2 BKN
19:56 71.0 °F 68.6 °F 30.09 in NNW 5.1 mph   92% 0.00 in WeatherDisplay:10.37 W/m2 BKN
20:01 70.9 °F 68.5 °F 30.09 in NNW 5.1 mph   92% 0.00 in WeatherDisplay:10.37 W/m2 BKN
20:06 70.8 °F 68.4 °F 30.10 in NNW 5.1 mph   92% 0.00 in WeatherDisplay:10.37 W/m2 BKN
20:11 70.8 °F 68.4 °F 30.10 in NNW 5.1 mph   92% 0.00 in WeatherDisplay:10.37 W/m2 BKN
20:17 70.7 °F 68.3 °F 30.10 in NNW 5.1 mph   92% 0.00 in WeatherDisplay:10.37 W/m2 BKN
20:22 70.7 °F 68.3 °F 30.09 in NNW 5.1 mph   92% 0.00 in WeatherDisplay:10.37 W/m2 BKN
20:27 70.6 °F 68.2 °F 30.09 in NNW 5.1 mph   92% 0.00 in WeatherDisplay:10.37 W/m2 BKN
20:32 70.5 °F 68.1 °F 30.09 in NNW 5.1 mph   92% 0.00 in WeatherDisplay:10.37 W/m2 BKN
20:37 70.4 °F 68.0 °F 30.10 in NNW 5.1 mph   92% 0.00 in WeatherDisplay:10.37 W/m2 BKN
20:42 70.4 °F 68.3 °F 30.10 in NNW 5.1 mph   93% 0.00 in WeatherDisplay:10.37 W/m2 BKN
20:47 70.3 °F 68.2 °F 30.10 in NNW 5.1 mph   93% 0.00 in WeatherDisplay:10.37 W/m2 BKN
20:52 70.3 °F 68.2 °F 30.11 in NNW 5.1 mph   93% 0.00 in WeatherDisplay:10.37 W/m2 BKN
20:57 70.3 °F 68.2 °F 30.11 in NNW 5.1 mph   93% 0.00 in WeatherDisplay:10.37 W/m2 BKN
21:02 70.5 °F 68.4 °F 30.12 in ESE 5.1 mph 5.1 mph 93% 0.00 in WeatherDisplay:10.37 W/m2 BKN
21:07 70.5 °F 68.4 °F 30.13 in West 5.1 mph   93% 0.00 in WeatherDisplay:10.37 W/m2 BKN
21:12 70.6 °F 68.5 °F 30.13 in WNW 5.1 mph   93% 0.00 in WeatherDisplay:10.37 W/m2 BKN
21:17 70.7 °F 68.6 °F 30.12 in WNW 5.1 mph 5.1 mph 93% 0.00 in WeatherDisplay:10.37 W/m2 OVC
21:22 70.8 °F 68.7 °F 30.11 in WNW 5.1 mph 5.1 mph 93% 0.00 in WeatherDisplay:10.37 W/m2 OVC
21:27 70.9 °F 68.8 °F 30.10 in NW 5.1 mph   93% 0.00 in WeatherDisplay:10.37 W/m2 OVC
21:32 70.9 °F 68.8 °F 30.10 in NW 5.1 mph   93% 0.00 in WeatherDisplay:10.37 W/m2 OVC
21:37 70.9 °F 68.8 °F 30.10 in NW 5.1 mph   93% 0.00 in WeatherDisplay:10.37 W/m2 OVC
21:42 71.0 °F 68.9 °F 30.09 in NNE 5.1 mph   93% 0.00 in WeatherDisplay:10.37 W/m2 OVC
21:47 71.0 °F 68.9 °F 30.09 in NNE 5.1 mph   93% 0.00 in WeatherDisplay:10.37 W/m2 OVC
21:53 71.1 °F 69.0 °F 30.09 in NNE 5.1 mph   93% 0.00 in WeatherDisplay:10.37 W/m2 OVC
21:58 71.2 °F 69.1 °F 30.09 in NNE 5.1 mph   93% 0.00 in WeatherDisplay:10.37 W/m2 OVC
22:03 71.2 °F 69.4 °F 30.09 in NNE 5.1 mph   94% 0.00 in WeatherDisplay:10.37 W/m2 OVC
22:08 71.3 °F 69.5 °F 30.09 in NNE 5.1 mph   94% 0.00 in WeatherDisplay:10.37 W/m2 OVC
22:13 71.4 °F 69.6 °F 30.10 in NNE 5.1 mph   94% 0.00 in WeatherDisplay:10.37 W/m2 OVC
22:18 71.4 °F 69.6 °F 30.10 in NNE 5.1 mph   94% 0.00 in WeatherDisplay:10.37 W/m2 OVC
22:23 71.4 °F 69.6 °F 30.10 in NNE 5.1 mph   94% 0.00 in WeatherDisplay:10.37 W/m2 OVC
22:28 71.5 °F 69.7 °F 30.10 in NNE 5.1 mph   94% 0.00 in WeatherDisplay:10.37 W/m2 OVC
22:33 71.5 °F 69.7 °F 30.11 in NNE 5.1 mph   94% 0.00 in WeatherDisplay:10.37 W/m2 OVC
22:38 71.4 °F 69.6 °F 30.11 in NNE 5.1 mph   94% 0.00 in WeatherDisplay:10.37 W/m2 OVC
22:43 71.3 °F 69.2 °F 30.11 in NNE 5.1 mph   93% 0.00 in WeatherDisplay:10.37 W/m2 OVC
22:48 71.2 °F 69.1 °F 30.12 in NNE 5.1 mph   93% 0.00 in WeatherDisplay:10.37 W/m2 OVC
22:53 71.1 °F 69.0 °F 30.12 in NNE 5.1 mph   93% 0.00 in WeatherDisplay:10.37 W/m2 OVC
22:58 71.1 °F 69.0 °F 30.13 in NNE 5.1 mph   93% 0.00 in WeatherDisplay:10.37 W/m2 OVC
23:03 71.0 °F 68.9 °F 30.13 in NNE 5.1 mph   93% 0.00 in WeatherDisplay:10.37 W/m2 OVC
23:08 70.9 °F 68.8 °F 30.13 in NNE 5.1 mph   93% 0.00 in WeatherDisplay:10.37 W/m2 OVC
23:13 70.9 °F 69.1 °F 30.13 in NNE 5.1 mph   94% 0.00 in WeatherDisplay:10.37 W/m2 OVC
23:18 70.9 °F 69.1 °F 30.14 in NNE 5.1 mph   94% 0.00 in WeatherDisplay:10.37 W/m2 OVC
23:23 70.9 °F 69.1 °F 30.14 in NNE 5.1 mph   94% 0.00 in WeatherDisplay:10.37 W/m2 OVC
23:28 70.8 °F 69.0 °F 30.14 in NNE 5.1 mph   94% 0.00 in WeatherDisplay:10.37 W/m2 OVC
23:33 70.8 °F 69.0 °F 30.14 in NNE 5.1 mph   94% 0.00 in WeatherDisplay:10.37 W/m2 OVC
23:39 70.8 °F 69.0 °F 30.14 in NNE 5.1 mph   94% 0.00 in WeatherDisplay:10.37 W/m2 OVC
23:44 70.8 °F 69.0 °F 30.14 in NNE 5.1 mph   94% 0.00 in WeatherDisplay:10.37 W/m2 OVC
23:49 70.8 °F 69.0 °F 30.14 in NNE 5.1 mph   94% 0.00 in WeatherDisplay:10.37 W/m2 OVC
23:54 70.7 °F 68.9 °F 30.14 in NNE 5.1 mph   94% 0.00 in WeatherDisplay:10.37 W/m2 OVC
23:59 70.8 °F 69.0 °F 30.14 in NNE 5.1 mph   94% 0.00 in WeatherDisplay:10.37 W/m2 OVC
Piedmont Bend
Compliments of Weather Underground - 4 mb